createdAt,value
2022-08-18T00:01:11.692Z,37.32247
2022-08-18T00:06:16.244Z,38.27905
2022-08-18T00:11:17.941Z,36.66261
2022-08-18T00:16:19.708Z,38.6784
2022-08-18T00:21:21.351Z,39.55844
2022-08-18T00:26:23.032Z,39.7516
2022-08-18T00:31:24.717Z,39.99846
2022-08-18T00:36:26.578Z,39.71252
2022-08-18T00:41:28.217Z,37.58012
2022-08-18T00:46:29.918Z,38.49159
2022-08-18T00:51:31.563Z,37.89146
2022-08-18T00:56:33.465Z,38.38358
2022-08-18T01:01:35.224Z,37.73325
2022-08-18T01:06:36.904Z,36.89135
2022-08-18T01:11:38.560Z,37.13979
2022-08-18T01:16:40.216Z,36.97237
2022-08-18T01:21:58.502Z,36.13683
2022-08-18T01:27:00.287Z,35.66856
2022-08-18T01:32:01.931Z,35.48207
2022-08-18T01:37:03.584Z,35.29622
2022-08-18T01:42:05.308Z,34.43307
2022-08-18T01:47:06.997Z,34.3241
2022-08-18T01:52:08.649Z,34.22784
2022-08-18T01:57:10.286Z,32.99238
2022-08-18T02:02:18.202Z,32.95235
2022-08-18T02:07:20.256Z,32.86118
2022-08-18T02:12:22.232Z,32.76746
2022-08-18T02:17:23.855Z,32.59432
2022-08-18T02:22:25.531Z,32.42119
2022-08-18T02:27:27.225Z,32.13877
2022-08-18T02:32:29.370Z,31.88908
2022-08-18T02:37:31.227Z,31.45831
2022-08-18T02:42:32.883Z,31.3036
2022-08-18T02:47:34.577Z,30.95258
2022-08-18T02:52:36.415Z,30.64888
2022-08-18T02:57:38.873Z,29.65743
2022-08-18T03:02:40.571Z,29.85566
2022-08-18T03:07:44.032Z,29.33468
2022-08-18T03:12:45.770Z,29.31657
2022-08-18T03:17:47.571Z,28.88741
2022-08-18T03:22:49.262Z,28.58912
2022-08-18T03:27:52.264Z,28.54242
2022-08-18T03:32:54.020Z,28.11358
2022-08-18T03:37:55.669Z,28.08308
2022-08-18T03:42:57.316Z,28.09198
2022-08-18T03:48:03.665Z,27.70125
2022-08-18T03:53:05.293Z,27.73302
2022-08-18T03:58:07.054Z,27.30735
2022-08-18T04:03:08.637Z,27.1517
2022-08-18T04:08:10.273Z,27.15297
2022-08-18T04:13:11.917Z,26.68919
2022-08-18T04:18:13.520Z,26.1047
2022-08-18T04:23:15.156Z,26.49986
2022-08-18T04:28:16.821Z,26.46333
2022-08-18T04:33:18.394Z,26.23875
2022-08-18T04:38:20.009Z,26.13647
2022-08-18T04:43:21.654Z,25.56024
2022-08-18T04:48:23.243Z,25.65045
2022-08-18T04:53:24.854Z,23.97071
2022-08-18T04:58:26.521Z,24.92843
2022-08-18T05:03:28.151Z,24.79438
2022-08-18T05:08:30.392Z,24.76293
2022-08-18T05:13:32.107Z,24.48308
2022-08-18T05:18:33.744Z,23.89734
2022-08-18T05:23:35.397Z,23.7436
2022-08-18T05:28:37.146Z,24.18195
2022-08-18T05:33:39.388Z,23.82047
2022-08-18T05:38:41.597Z,23.75027
2022-08-18T05:43:51.277Z,23.30651
2022-08-18T05:48:54.125Z,23.17914
2022-08-18T05:53:55.886Z,23.3008
2022-08-18T05:58:57.496Z,22.80749
2022-08-18T06:03:59.929Z,21.9505
2022-08-18T06:09:01.528Z,22.81607
2022-08-18T06:14:03.399Z,22.22494
2022-08-18T06:19:05.012Z,22.48159
2022-08-18T06:24:06.641Z,21.84345
2022-08-18T06:29:08.224Z,22.03689
2022-08-18T06:34:09.935Z,21.52581
2022-08-18T06:39:11.531Z,22.36152
2022-08-18T06:44:13.200Z,21.40384
2022-08-18T06:49:14.783Z,21.67447
2022-08-18T06:54:16.507Z,22.19286
2022-08-18T06:59:18.142Z,21.85711
2022-08-18T07:04:19.880Z,21.78628
2022-08-18T07:09:21.487Z,21.29203
2022-08-18T07:14:23.141Z,18.74206
2022-08-18T07:19:24.788Z,20.1892
2022-08-18T07:24:26.385Z,20.34166
2022-08-18T07:29:28.004Z,20.87243
2022-08-18T07:34:29.634Z,21.08683
2022-08-18T07:39:31.326Z,21.02172
2022-08-18T07:44:32.925Z,20.6666
2022-08-18T07:49:35.334Z,20.86767
2022-08-18T07:54:49.443Z,20.27496
2022-08-18T07:59:52.020Z,20.55448
2022-08-18T08:04:53.623Z,20.95216
2022-08-18T08:09:55.257Z,20.07929
2022-08-18T08:14:56.868Z,19.50787
2022-08-18T08:20:01.309Z,19.47039
2022-08-18T08:25:03.378Z,19.35414
2022-08-18T08:30:04.991Z,19.63524
2022-08-18T08:35:06.781Z,19.90968
2022-08-18T08:40:08.612Z,19.9335
2022-08-18T08:45:10.255Z,19.30967
2022-08-18T08:50:11.860Z,19.5552
2022-08-18T08:55:13.426Z,19.883
2022-08-18T09:00:15.023Z,19.35795
2022-08-18T09:05:16.590Z,18.91168
2022-08-18T09:10:18.232Z,19.28712
2022-08-18T09:15:19.853Z,18.70903
2022-08-18T09:20:21.544Z,18.73317
2022-08-18T09:25:23.168Z,18.6382
2022-08-18T09:30:24.894Z,18.67949
2022-08-18T09:35:26.499Z,18.71507
2022-08-18T09:40:51.282Z,18.48097
2022-08-18T09:46:03.007Z,18.53529
2022-08-18T09:51:04.644Z,18.58071
2022-08-18T09:56:06.255Z,18.20432
2022-08-18T10:01:07.958Z,18.80686
2022-08-18T13:09:54.272Z,16.10387
2022-08-18T13:14:56.177Z,16.48915
2022-08-18T13:20:00.437Z,16.20075
2022-08-18T13:25:03.847Z,16.28396
2022-08-18T13:30:29.536Z,16.24109
2022-08-18T13:35:35.324Z,16.30366
2022-08-18T13:40:45.529Z,16.20551
2022-08-18T13:45:52.970Z,15.17198
2022-08-18T13:50:57.401Z,16.34018
2022-08-18T13:55:59.278Z,16.78041
2022-08-18T14:01:22.791Z,17.6796
2022-08-18T14:06:46.836Z,17.36102
2022-08-18T14:11:53.103Z,18.51401
2022-08-18T14:16:54.690Z,18.23291
2022-08-18T14:21:58.561Z,19.4688
2022-08-18T14:27:00.283Z,19.95478
2022-08-18T14:32:02.708Z,16.58189
2022-08-18T14:37:04.568Z,18.2977
2022-08-18T14:42:12.185Z,18.37647
2022-08-18T14:47:13.886Z,18.78431
2022-08-18T14:52:25.865Z,18.94662
2022-08-18T14:57:28.870Z,19.07558
2022-08-18T15:02:30.495Z,19.40782
2022-08-18T15:07:32.743Z,20.08628
2022-08-18T15:12:34.677Z,21.32602
2022-08-18T15:17:37.943Z,21.73863
2022-08-18T15:22:39.732Z,22.4403
2022-08-18T15:27:42.846Z,22.36025
2022-08-18T15:32:44.926Z,22.47143
2022-08-18T15:37:46.613Z,23.28841
2022-08-18T15:42:48.385Z,24.16829
2022-08-18T15:47:50.738Z,24.05711
2022-08-18T15:52:53.142Z,24.51389
2022-08-18T15:57:56.816Z,24.17941
2022-08-18T16:03:00.008Z,24.77754
2022-08-18T16:08:02.417Z,25.91601
2022-08-18T16:13:05.015Z,26.40298
2022-08-18T16:18:06.641Z,27.33404
2022-08-18T16:23:08.454Z,27.6895
2022-08-18T16:28:10.077Z,26.4322
2022-08-18T16:33:11.696Z,28.28194
2022-08-18T16:38:13.346Z,28.64026
2022-08-18T16:43:14.929Z,28.6139
2022-08-18T16:48:17.035Z,29.02877
2022-08-18T16:53:18.750Z,29.24002
2022-08-18T16:58:20.305Z,29.70349
2022-08-18T17:03:22.092Z,29.81087
2022-08-18T17:08:23.670Z,30.08374
2022-08-18T17:13:25.295Z,30.27022
2022-08-18T17:18:26.888Z,30.46209
2022-08-18T17:23:28.460Z,30.30643
2022-08-18T17:28:30.070Z,30.59424
2022-08-18T17:33:34.592Z,30.57105
2022-08-18T17:38:36.186Z,30.56184
2022-08-18T17:43:37.840Z,30.94114
2022-08-18T17:48:39.578Z,31.19464
2022-08-18T17:53:41.278Z,31.03549
2022-08-18T17:58:42.899Z,30.61076
2022-08-18T18:03:44.532Z,30.93351
2022-08-18T18:08:46.279Z,30.45224
2022-08-18T18:13:47.862Z,30.74386
2022-08-18T18:18:49.488Z,31.35634
2022-08-18T18:23:51.111Z,31.29153
2022-08-18T18:28:52.706Z,31.9326
2022-08-18T18:33:54.396Z,32.45836
2022-08-18T18:38:56.017Z,32.64039
2022-08-18T18:43:57.622Z,32.33478
2022-08-18T18:48:59.208Z,32.24361
2022-08-18T18:54:00.864Z,32.5022
2022-08-18T18:59:02.439Z,31.81061
2022-08-18T19:04:04.028Z,33.02573
2022-08-18T19:09:05.606Z,32.36782
2022-08-18T19:14:07.426Z,32.90629
2022-08-18T19:19:36.709Z,32.18357
2022-08-18T19:24:40.295Z,32.35765
2022-08-18T19:29:41.923Z,32.77318
2022-08-18T19:34:51.478Z,32.87769
2022-08-18T19:39:56.154Z,32.61243
2022-08-18T19:45:15.369Z,32.85863
2022-08-18T19:50:18.672Z,33.44889
2022-08-18T19:55:20.321Z,33.5696
2022-08-18T20:00:22.051Z,33.22937
2022-08-18T20:05:23.665Z,34.68023
2022-08-18T20:10:25.261Z,34.91563
2022-08-18T20:15:26.903Z,35.62344
2022-08-18T20:20:28.662Z,36.65562
2022-08-18T20:25:30.237Z,36.73187
2022-08-18T20:30:31.797Z,37.10612
2022-08-18T20:35:33.409Z,34.95566
2022-08-18T20:40:35.051Z,34.37462
2022-08-18T20:45:36.821Z,34.76791
2022-08-18T20:50:47.812Z,34.69611
2022-08-18T20:55:53.128Z,35.22538
2022-08-18T21:00:55.102Z,35.66792
2022-08-18T21:05:56.783Z,35.70922
2022-08-18T21:10:58.398Z,34.61256
2022-08-18T21:16:00.154Z,36.36589
2022-08-18T21:21:01.824Z,34.39526
2022-08-18T21:26:06.345Z,34.66562
2022-08-18T21:31:41.772Z,35.96369
2022-08-18T21:36:45.160Z,37.4451
2022-08-18T21:41:46.768Z,36.03231
2022-08-18T21:46:48.419Z,35.86997
2022-08-18T21:51:50.103Z,35.2257
2022-08-18T21:56:51.707Z,35.26033
2022-08-18T22:01:53.491Z,34.44101
2022-08-18T22:06:55.093Z,35.64378
2022-08-18T22:12:00.674Z,36.30616
2022-08-18T22:17:04.122Z,37.89146
2022-08-18T22:22:05.728Z,35.63901
2022-08-18T22:27:07.410Z,35.4341
2022-08-18T22:32:09.058Z,34.70533
2022-08-18T22:37:10.699Z,37.08038
2022-08-18T22:42:12.551Z,38.54116
2022-08-18T22:47:14.222Z,38.42774
2022-08-18T22:52:15.917Z,41.30011
2022-08-18T22:57:17.547Z,42.05626
2022-08-18T23:02:21.912Z,38.917
2022-08-18T23:07:23.819Z,39.42214
2022-08-18T23:12:25.409Z,39.37862
2022-08-18T23:17:26.985Z,37.05274
2022-08-18T23:22:28.844Z,34.77172
2022-08-18T23:27:30.477Z,38.17008
2022-08-18T23:32:33.381Z,37.59886
2022-08-18T23:37:34.952Z,37.88098
2022-08-18T23:42:36.519Z,38.47253
2022-08-18T23:47:38.119Z,39.30046
2022-08-18T23:52:39.695Z,40.05088
2022-08-18T23:57:41.410Z,38.48746
